Time;durP1;ratioP1;P1;durP2;ratioP2;P2;SDS_P1;SDS_P2;PMS_P1;PMS_P2;Temp;Humidity;BMP_temperature;BMP_pressure;BME280_temperature;BME280_humidity;BME280_pressure;Samples;Min_cycle;Max_cycle;Signal;HPM_P1;HPM_P2
2022/01/05 00:01:21;;;;;;;11.32;1.63;;;2.90;99.90;;;;;;5044537;28;20041;-83
2022/01/05 00:03:46;;;;;;;5.03;1.17;;;2.10;99.90;;;;;;5034364;28;20441;-83
2022/01/05 00:06:12;;;;;;;8.88;1.20;;;4.00;99.90;;;;;;5028776;28;20037;-83
2022/01/05 00:08:38;;;;;;;7.38;1.48;;;2.10;99.90;;;;;;5027540;28;20048;-83
2022/01/05 00:11:04;;;;;;;9.27;1.50;;;2.10;99.90;;;;;;5030622;28;20032;-84
2022/01/05 00:13:29;;;;;;;7.95;1.50;;;2.00;99.90;;;;;;5026752;28;20029;-83
2022/01/05 00:15:55;;;;;;;5.63;1.40;;;2.00;99.90;;;;;;5027278;28;20382;-84
2022/01/05 00:18:21;;;;;;;8.95;1.90;;;4.00;99.90;;;;;;5028221;28;20080;-83
2022/01/05 00:20:47;;;;;;;9.93;1.40;;;2.10;99.90;;;;;;5042665;28;20493;-83
2022/01/05 00:23:12;;;;;;;8.30;1.50;;;3.30;99.90;;;;;;5025216;28;20043;-83
2022/01/05 00:25:38;;;;;;;11.75;1.52;;;3.90;99.90;;;;;;5011339;28;20427;-84
2022/01/05 00:28:04;;;;;;;9.70;1.70;;;2.20;99.90;;;;;;5012476;28;20055;-83
2022/01/05 00:30:30;;;;;;;6.63;1.70;;;3.60;99.90;;;;;;5046808;28;20032;-82
2022/01/05 00:32:55;;;;;;;14.50;1.70;;;2.30;99.90;;;;;;5027621;28;20508;-83
2022/01/05 00:35:21;;;;;;;8.82;1.60;;;2.30;99.90;;;;;;5041131;28;20037;-83
2022/01/05 00:37:47;;;;;;;13.00;2.13;;;3.90;99.90;;;;;;5047930;28;20037;-83
2022/01/05 00:40:12;;;;;;;9.23;1.60;;;3.50;99.90;;;;;;5045781;28;20039;-83
2022/01/05 00:42:38;;;;;;;11.00;1.85;;;4.40;99.90;;;;;;5048437;28;20045;-83
2022/01/05 00:45:04;;;;;;;8.33;1.63;;;3.40;99.90;;;;;;5052291;28;20869;-83
2022/01/05 00:47:31;;;;;;;9.15;1.60;;;2.40;99.90;;;;;;5027434;28;20846;-84
2022/01/05 00:49:57;;;;;;;14.27;1.85;;;2.30;99.90;;;;;;5034232;28;20528;-83
2022/01/05 00:52:22;;;;;;;13.07;2.05;;;3.30;99.90;;;;;;5043115;28;20028;-83
2022/01/05 00:54:48;;;;;;;9.93;1.83;;;3.80;99.90;;;;;;5049131;28;20067;-83
2022/01/05 00:57:15;;;;;;;10.67;1.83;;;2.30;99.90;;;;;;5030055;28;20043;-83
2022/01/05 00:59:41;;;;;;;9.82;2.10;;;3.90;99.90;;;;;;5041501;28;20802;-83
2022/01/05 01:02:06;;;;;;;7.22;1.40;;;2.40;99.90;;;;;;5006601;28;20125;-83
2022/01/05 01:04:32;;;;;;;12.88;2.05;;;2.60;99.90;;;;;;5026336;28;20043;-83
2022/01/05 01:06:58;;;;;;;14.87;2.57;;;4.10;99.90;;;;;;5027557;28;20563;-83
2022/01/05 01:09:24;;;;;;;13.90;2.27;;;2.30;99.90;;;;;;5041165;28;20397;-83
2022/01/05 01:11:49;;;;;;;17.15;1.80;;;2.30;99.90;;;;;;5041301;28;20783;-84
2022/01/05 01:14:15;;;;;;;6.88;1.90;;;4.30;99.90;;;;;;5047979;28;20437;-83
2022/01/05 01:16:41;;;;;;;6.40;1.83;;;2.50;99.90;;;;;;5015282;28;20049;-83
2022/01/05 01:19:06;;;;;;;10.90;2.63;;;4.20;99.90;;;;;;5043471;28;20041;-83
2022/01/05 01:21:32;;;;;;;9.00;1.90;;;3.20;99.90;;;;;;5033642;28;20120;-83
2022/01/05 01:23:58;;;;;;;7.28;1.83;;;2.70;99.90;;;;;;5028853;28;20033;-83
2022/01/05 01:26:26;;;;;;;14.23;2.28;;;3.10;99.90;;;;;;5050567;28;20059;-83
2022/01/05 01:28:52;;;;;;;13.15;2.65;;;2.90;99.90;;;;;;5045846;28;20496;-83
2022/01/05 01:31:19;;;;;;;15.05;2.50;;;2.90;99.90;;;;;;5027208;28;20071;-83
2022/01/05 01:33:45;;;;;;;10.98;2.00;;;4.40;99.90;;;;;;5042843;28;20398;-84
2022/01/05 01:36:10;;;;;;;14.35;2.10;;;3.70;99.90;;;;;;5038100;28;20123;-83
2022/01/05 01:38:36;;;;;;;9.23;2.08;;;4.20;99.90;;;;;;5046155;28;20036;-84
2022/01/05 01:41:03;;;;;;;10.50;2.15;;;4.50;99.90;;;;;;5051008;28;20040;-83
2022/01/05 01:43:28;;;;;;;;;;;3.10;99.90;;;;;;5043687;28;20046;-83
2022/01/05 01:45:54;;;;;;;12.10;2.17;;;4.90;99.90;;;;;;5052478;28;19920;-83
2022/01/05 01:48:20;;;;;;;9.30;2.08;;;3.10;99.90;;;;;;5040782;28;20032;-84
2022/01/05 01:50:46;;;;;;;8.93;2.05;;;3.70;99.90;;;;;;5045133;28;20122;-83
2022/01/05 01:53:12;;;;;;;13.73;1.63;;;4.90;99.90;;;;;;5023439;28;20046;-84
2022/01/05 01:55:38;;;;;;;5.78;1.80;;;3.10;99.90;;;;;;5035672;28;20044;-83
2022/01/05 01:58:06;;;;;;;9.80;2.38;;;3.20;99.90;;;;;;5060524;28;20093;-84
2022/01/05 02:00:32;;;;;;;10.48;1.48;;;4.10;99.90;;;;;;5028551;28;20133;-83
2022/01/05 02:02:58;;;;;;;10.63;2.38;;;3.70;99.90;;;;;;5027281;28;20092;-83
2022/01/05 02:05:24;;;;;;;6.18;1.73;;;4.20;99.90;;;;;;5061791;28;20072;-83
2022/01/05 02:07:49;;;;;;;10.45;2.00;;;3.00;99.90;;;;;;5040465;28;20068;-83
2022/01/05 02:10:16;;;;;;;10.40;1.88;;;3.00;99.90;;;;;;5045143;28;20051;-83
2022/01/05 02:12:43;;;;;;;13.18;2.35;;;4.20;99.90;;;;;;5026182;28;20033;-83
2022/01/05 02:15:09;;;;;;;;;;;4.80;99.90;;;;;;5044328;28;20045;-83
2022/01/05 02:17:52;;;;;;;11.18;1.58;;;2.90;99.90;;;;;;5052706;28;19916;-83
2022/01/05 02:20:21;;;;;;;7.28;1.70;;;4.10;99.90;;;;;;5042789;28;20070;-83
2022/01/05 02:22:47;;;;;;;14.20;2.35;;;2.90;99.90;;;;;;5062790;28;20050;-83
2022/01/05 02:25:14;;;;;;;9.80;1.90;;;3.10;99.90;;;;;;5057854;28;20071;-83
2022/01/05 02:27:42;;;;;;;10.50;2.17;;;2.90;99.90;;;;;;5030777;28;20443;-82
2022/01/05 02:30:10;;;;;;;7.28;1.90;;;2.90;99.90;;;;;;5056483;28;20051;-84
2022/01/05 02:32:36;;;;;;;10.68;2.05;;;2.90;99.90;;;;;;5022363;28;20037;-83
2022/01/05 02:35:02;;;;;;;13.30;2.15;;;4.40;99.90;;;;;;5051702;28;20037;-84
2022/01/05 02:37:28;;;;;;;12.32;2.25;;;2.90;99.90;;;;;;5029849;28;20123;-83
2022/01/05 02:39:54;;;;;;;15.52;2.40;;;3.20;99.90;;;;;;5044172;28;20128;-83
2022/01/05 02:42:27;;;;;;;12.75;2.03;;;5.00;99.90;;;;;;5010400;28;20068;-83
2022/01/05 02:44:55;;;;;;;11.70;2.50;;;3.30;99.90;;;;;;5061186;28;20488;-84
2022/01/05 02:47:21;;;;;;;16.15;1.90;;;3.10;99.90;;;;;;5020773;28;20038;-83
2022/01/05 02:49:47;;;;;;;16.80;2.10;;;3.10;99.90;;;;;;5024142;28;20095;-83
2022/01/05 02:52:13;;;;;;;10.40;1.90;;;4.50;99.90;;;;;;5047707;28;20041;-83
2022/01/05 02:54:39;;;;;;;10.15;1.90;;;3.10;99.90;;;;;;5029424;28;20094;-83
2022/01/05 02:57:05;;;;;;;9.75;2.50;;;3.70;99.90;;;;;;5022533;28;20036;-83
2022/01/05 02:59:30;;;;;;;10.10;1.73;;;3.10;99.90;;;;;;5039385;28;20044;-83
2022/01/05 03:01:56;;;;;;;13.90;2.45;;;4.50;99.90;;;;;;5030582;28;20385;-83
2022/01/05 03:04:23;;;;;;;9.13;2.30;;;5.10;99.90;;;;;;5044364;28;20033;-83
2022/01/05 03:06:49;;;;;;;17.60;2.55;;;3.70;99.90;;;;;;5063159;28;20643;-84
2022/01/05 03:09:14;;;;;;;15.23;2.20;;;4.30;99.90;;;;;;5048577;28;20037;-84
2022/01/05 03:11:40;;;;;;;13.97;2.30;;;3.40;99.90;;;;;;5056029;28;20801;-83
2022/01/05 03:14:06;;;;;;;14.77;2.00;;;3.60;99.90;;;;;;5017038;28;20309;-82
2022/01/05 03:16:31;;;;;;;18.88;2.25;;;3.60;99.90;;;;;;5012027;28;20071;-83
2022/01/05 03:18:57;;;;;;;15.38;2.97;;;3.70;99.90;;;;;;5007949;28;20072;-83
2022/01/05 03:21:23;;;;;;;14.85;2.03;;;5.00;99.90;;;;;;5024441;28;20430;-83
2022/01/05 03:23:48;;;;;;;11.43;2.30;;;3.80;99.90;;;;;;5049290;28;20131;-83
2022/01/05 03:26:14;;;;;;;8.77;1.75;;;5.10;99.90;;;;;;5029173;28;20032;-83
2022/01/05 03:28:40;;;;;;;8.13;1.92;;;3.90;99.90;;;;;;5041141;28;20040;-83
2022/01/05 03:31:06;;;;;;;10.73;1.90;;;3.90;99.90;;;;;;5025718;28;20041;-82
2022/01/05 03:33:31;;;;;;;7.60;1.80;;;4.00;99.90;;;;;;5013752;28;20037;-83
2022/01/05 03:35:57;;;;;;;12.63;2.25;;;4.30;99.90;;;;;;5044081;28;20116;-83
2022/01/05 03:38:24;;;;;;;12.98;2.33;;;4.00;99.90;;;;;;5030169;28;20573;-83
2022/01/05 03:40:50;;;;;;;8.45;1.83;;;4.60;99.90;;;;;;5060676;28;20171;-83
2022/01/05 03:43:16;;;;;;;9.63;1.70;;;3.90;99.90;;;;;;5045211;28;20036;-83
2022/01/05 03:45:42;;;;;;;12.00;2.30;;;4.00;99.90;;;;;;5061694;28;20534;-82
2022/01/05 03:48:10;;;;;;;10.30;1.70;;;4.90;99.90;;;;;;5043401;28;20415;-83
2022/01/05 03:50:37;;;;;;;11.85;1.65;;;4.70;99.90;;;;;;5042468;28;20052;-83
2022/01/05 03:53:04;;;;;;;12.73;1.80;;;4.10;99.90;;;;;;5040783;28;20037;-82
2022/01/05 03:55:31;;;;;;;17.02;2.83;;;4.00;99.90;;;;;;5021529;28;20102;-83
2022/01/05 03:57:57;;;;;;;7.38;2.13;;;4.00;99.90;;;;;;5031006;28;20557;-83
2022/01/05 04:00:24;;;;;;;12.25;1.80;;;3.90;99.90;;;;;;5047822;28;20037;-83
2022/01/05 04:02:50;;;;;;;9.38;1.60;;;3.90;99.90;;;;;;5047922;28;20511;-83
2022/01/05 04:05:16;;;;;;;9.40;1.77;;;4.30;99.90;;;;;;5030509;28;20029;-84
2022/01/05 04:07:41;;;;;;;8.50;1.90;;;3.90;99.90;;;;;;5044971;28;20039;-83
2022/01/05 04:10:08;;;;;;;10.55;2.00;;;3.90;99.90;;;;;;5017172;28;20028;-83
2022/01/05 04:12:33;;;;;;;10.18;1.88;;;3.90;99.90;;;;;;5043123;28;20446;-83
2022/01/05 04:14:59;;;;;;;10.70;1.55;;;4.00;99.90;;;;;;5063672;28;20040;-83
2022/01/05 04:17:25;;;;;;;7.25;1.63;;;4.70;99.90;;;;;;5042380;28;20040;-83
2022/01/05 04:19:51;;;;;;;9.25;2.08;;;4.10;99.90;;;;;;5041980;28;20485;-82
2022/01/05 04:22:19;;;;;;;7.43;2.03;;;5.50;99.90;;;;;;5058556;28;20036;-83
2022/01/05 04:24:45;;;;;;;7.35;1.55;;;4.20;99.90;;;;;;5025389;28;20040;-83
2022/01/05 04:27:11;;;;;;;6.68;1.20;;;5.20;99.90;;;;;;5047770;28;20082;-83
2022/01/05 04:29:37;;;;;;;2.35;0.93;;;4.10;99.90;;;;;;5044503;28;21694;-83
2022/01/05 04:32:03;;;;;;;6.47;1.35;;;4.40;99.90;;;;;;5039738;28;20051;-83
2022/01/05 04:34:29;;;;;;;9.75;1.67;;;4.00;99.90;;;;;;5042457;28;20509;-83
2022/01/05 04:36:54;;;;;;;9.23;1.60;;;4.00;99.90;;;;;;5013949;28;20074;-83
2022/01/05 04:39:20;;;;;;;5.00;1.45;;;4.80;99.90;;;;;;5049193;28;20028;-83
2022/01/05 04:41:46;;;;;;;6.75;1.60;;;3.90;99.90;;;;;;5013587;28;20033;-83
2022/01/05 04:44:12;;;;;;;6.40;1.30;;;3.80;99.90;;;;;;5042522;28;20056;-83
2022/01/05 04:46:37;;;;;;;7.20;1.65;;;3.70;99.90;;;;;;5035608;28;20552;-83
2022/01/05 04:49:04;;;;;;;4.90;1.40;;;3.70;99.90;;;;;;5028309;28;20124;-83
2022/01/05 04:51:30;;;;;;;10.55;1.58;;;3.70;99.90;;;;;;5050599;28;20495;-84
2022/01/05 04:53:56;;;;;;;10.07;1.75;;;3.70;99.90;;;;;;5035448;28;20032;-83
2022/01/05 04:56:22;;;;;;;9.57;1.45;;;3.80;99.90;;;;;;5030885;28;20488;-83
2022/01/05 04:58:47;;;;;;;11.43;1.95;;;3.70;99.90;;;;;;5029287;28;20037;-84
2022/01/05 05:01:14;;;;;;;11.03;1.80;;;5.50;99.90;;;;;;5044018;28;20059;-83
2022/01/05 05:03:39;;;;;;;;;;;3.70;99.90;;;;;;5031607;28;20900;-83
2022/01/05 05:06:05;;;;;;;13.10;1.98;;;4.20;99.90;;;;;;5044270;28;19919;-83
2022/01/05 05:08:31;;;;;;;15.02;2.13;;;3.80;99.90;;;;;;5036200;28;20044;-84
2022/01/05 05:10:57;;;;;;;11.20;2.17;;;4.00;99.90;;;;;;5010703;28;20043;-84
2022/01/05 05:13:22;;;;;;;15.05;2.35;;;3.70;99.90;;;;;;5025839;28;20040;-83
2022/01/05 05:15:48;;;;;;;17.13;2.20;;;3.80;99.90;;;;;;5056465;28;20036;-83
2022/01/05 05:18:14;;;;;;;10.18;2.30;;;4.30;99.90;;;;;;5042049;28;20044;-83
2022/01/05 05:20:40;;;;;;;13.63;1.90;;;5.60;99.90;;;;;;5010757;28;20483;-83
2022/01/05 05:23:06;;;;;;;9.98;2.00;;;4.50;99.90;;;;;;5058531;28;20123;-83
2022/01/05 05:25:32;;;;;;;13.95;2.20;;;5.50;99.90;;;;;;5023630;28;20112;-83
2022/01/05 05:27:59;;;;;;;9.73;1.70;;;3.80;99.90;;;;;;5030665;28;20036;-83
2022/01/05 05:30:24;;;;;;;8.65;1.88;;;4.00;99.90;;;;;;5049955;28;20508;-83
2022/01/05 05:32:54;;;;;;;11.45;1.92;;;4.40;99.90;;;;;;5068128;28;20040;-83
2022/01/05 05:35:20;;;;;;;8.73;1.77;;;4.10;99.90;;;;;;5030920;28;20097;-83
2022/01/05 05:37:46;;;;;;;9.68;1.92;;;5.60;99.90;;;;;;5042964;28;20040;-83
2022/01/05 05:40:12;;;;;;;12.70;2.50;;;4.60;99.90;;;;;;5016009;28;20047;-82
2022/01/05 05:42:37;;;;;;;11.48;2.80;;;4.20;99.90;;;;;;5035170;28;20305;-85
2022/01/05 05:45:04;;;;;;;14.18;2.00;;;4.20;99.90;;;;;;5027266;28;20041;-82
2022/01/05 05:47:30;;;;;;;17.63;2.58;;;4.10;99.90;;;;;;5030029;28;20029;-85
2022/01/05 05:49:55;;;;;;;15.48;2.33;;;5.20;99.90;;;;;;5028157;28;20059;-84
2022/01/05 05:52:21;;;;;;;13.93;2.55;;;4.70;99.90;;;;;;5022050;28;20480;-85
2022/01/05 05:54:47;;;;;;;10.05;2.00;;;4.30;99.90;;;;;;5031457;28;20451;-89
2022/01/05 05:57:12;;;;;;;14.57;2.22;;;4.00;99.90;;;;;;5020759;28;20034;-86
2022/01/05 05:59:38;;;;;;;8.73;1.80;;;5.00;99.90;;;;;;5009789;28;20032;-84
2022/01/05 06:02:04;;;;;;;12.50;2.00;;;4.10;99.90;;;;;;5049144;28;20036;-85
2022/01/05 06:04:30;;;;;;;14.00;2.28;;;4.30;99.90;;;;;;5037896;28;20285;-83
2022/01/05 06:06:55;;;;;;;10.00;2.03;;;4.50;99.90;;;;;;5045075;28;20111;-86
2022/01/05 06:09:21;;;;;;;10.55;3.10;;;4.80;99.90;;;;;;5063837;28;20036;-86
2022/01/05 06:11:47;;;;;;;6.43;1.70;;;4.20;99.90;;;;;;5030785;28;20349;-84
2022/01/05 06:14:12;;;;;;;13.90;1.95;;;4.10;99.90;;;;;;5031488;28;20389;-83
2022/01/05 06:16:38;;;;;;;12.60;2.20;;;5.60;99.90;;;;;;5014181;28;20043;-84
2022/01/05 06:19:04;;;;;;;16.63;2.17;;;4.10;99.90;;;;;;5022092;28;20845;-85
2022/01/05 06:21:29;;;;;;;8.73;1.70;;;4.10;99.90;;;;;;5033544;28;20278;-84
2022/01/05 06:23:55;;;;;;;8.45;1.77;;;4.30;99.90;;;;;;5035529;28;20067;-82
2022/01/05 06:26:21;;;;;;;13.27;2.33;;;4.70;99.90;;;;;;5052015;28;20036;-83
2022/01/05 06:28:47;;;;;;;11.82;2.08;;;4.20;99.90;;;;;;5028470;28;20036;-82
2022/01/05 06:31:13;;;;;;;12.73;2.55;;;4.20;99.90;;;;;;5022583;28;20040;-84
2022/01/05 06:33:39;;;;;;;8.18;1.77;;;4.20;99.90;;;;;;5027986;28;20043;-83
2022/01/05 06:36:04;;;;;;;11.00;2.17;;;4.40;99.90;;;;;;5010642;28;20122;-83
2022/01/05 06:38:30;;;;;;;11.25;2.42;;;4.30;99.90;;;;;;5020456;28;20278;-84
2022/01/05 06:40:56;;;;;;;13.35;2.50;;;5.00;99.90;;;;;;5054324;28;20044;-83
2022/01/05 06:43:22;;;;;;;14.18;1.83;;;4.40;99.90;;;;;;5036570;28;20037;-83
2022/01/05 06:45:47;;;;;;;13.25;2.63;;;4.40;99.90;;;;;;5034454;28;20048;-82
2022/01/05 06:48:13;;;;;;;11.30;1.75;;;4.70;99.90;;;;;;5028711;28;20036;-84
2022/01/05 06:50:39;;;;;;;7.68;1.63;;;4.50;99.90;;;;;;5038735;28;20098;-83
2022/01/05 06:53:04;;;;;;;11.30;1.75;;;4.60;99.90;;;;;;5025233;28;20044;-82
2022/01/05 06:55:30;;;;;;;14.82;2.30;;;5.40;99.90;;;;;;5042001;28;20043;-83
2022/01/05 06:57:56;;;;;;;8.95;2.20;;;4.60;99.90;;;;;;5025055;28;20113;-82
2022/01/05 07:00:23;;;;;;;5.93;1.50;;;4.60;99.90;;;;;;5045899;28;20068;-83
2022/01/05 07:02:50;;;;;;;11.95;2.10;;;4.50;99.90;;;;;;5059168;28;20071;-83
2022/01/05 07:05:16;;;;;;;10.00;1.25;;;4.80;99.90;;;;;;5067821;28;20044;-84
2022/01/05 07:07:42;;;;;;;10.85;1.88;;;4.60;99.90;;;;;;5043051;28;20457;-84
2022/01/05 07:10:09;;;;;;;6.07;1.10;;;4.50;99.90;;;;;;5038331;28;20036;-82
2022/01/05 07:12:36;;;;;;;9.18;1.20;;;4.30;99.90;;;;;;5027839;28;20067;-83
2022/01/05 07:15:04;;;;;;;6.22;1.08;;;4.50;99.90;;;;;;5041760;28;20036;-83
2022/01/05 07:17:29;;;;;;;5.50;0.98;;;4.50;99.90;;;;;;5041686;28;20466;-83
2022/01/05 07:19:56;;;;;;;5.68;1.30;;;4.50;99.90;;;;;;5052509;28;20029;-85
2022/01/05 07:22:21;;;;;;;7.47;1.45;;;4.50;99.90;;;;;;5005526;28;20059;-83
2022/01/05 07:24:47;;;;;;;10.43;1.67;;;6.00;99.90;;;;;;5040616;28;20044;-83
2022/01/05 07:27:13;;;;;;;7.05;1.45;;;4.50;99.90;;;;;;5062759;28;20117;-79
2022/01/05 07:29:39;;;;;;;12.10;1.60;;;5.10;99.90;;;;;;5014510;28;20111;-79
2022/01/05 07:32:05;;;;;;;8.90;1.23;;;4.50;99.90;;;;;;5030562;28;20036;-80
2022/01/05 07:34:31;;;;;;;10.80;1.88;;;4.50;99.90;;;;;;5065292;28;20033;-80
2022/01/05 07:36:57;;;;;;;10.23;1.70;;;4.60;99.90;;;;;;5042741;28;20046;-79
2022/01/05 07:39:22;;;;;;;9.65;1.75;;;4.50;99.90;;;;;;5013992;28;20101;-78
2022/01/05 07:41:48;;;;;;;9.15;1.70;;;4.50;99.90;;;;;;5062171;28;20120;-77
2022/01/05 07:44:14;;;;;;;12.48;1.65;;;4.50;99.90;;;;;;5038271;28;20036;-77
2022/01/05 07:46:40;;;;;;;11.90;1.70;;;4.60;99.90;;;;;;5044019;28;20126;-77
2022/01/05 07:49:05;;;;;;;6.68;1.48;;;4.50;99.90;;;;;;5042604;28;20602;-78
2022/01/05 07:51:32;;;;;;;9.13;1.63;;;4.50;99.90;;;;;;5057671;28;20079;-78
2022/01/05 07:53:58;;;;;;;9.35;1.40;;;5.40;99.90;;;;;;5045889;28;20498;-78
2022/01/05 07:56:24;;;;;;;12.27;1.67;;;4.50;99.90;;;;;;5030352;28;20032;-78
2022/01/05 07:58:50;;;;;;;14.75;2.45;;;4.50;99.90;;;;;;5043730;28;20043;-78
2022/01/05 08:01:18;;;;;;;8.90;1.67;;;5.00;99.90;;;;;;5030839;28;20032;-77
2022/01/05 08:03:45;;;;;;;12.95;2.13;;;4.60;99.90;;;;;;5042853;28;20689;-78
2022/01/05 08:06:11;;;;;;;16.60;2.10;;;4.70;99.90;;;;;;5055940;28;20098;-77
2022/01/05 08:08:37;;;;;;;15.30;2.55;;;4.50;99.90;;;;;;5053764;28;20414;-77
2022/01/05 08:11:02;;;;;;;12.82;1.83;;;4.50;99.90;;;;;;5058047;28;20067;-77
2022/01/05 08:13:28;;;;;;;14.48;2.10;;;4.40;99.90;;;;;;5046110;28;20047;-77
2022/01/05 08:15:54;;;;;;;13.60;1.90;;;4.40;99.90;;;;;;5049886;28;20039;-77
2022/01/05 08:18:21;;;;;;;12.27;1.60;;;5.90;99.90;;;;;;5046839;28;20278;-77
2022/01/05 08:20:47;;;;;;;9.52;1.52;;;4.50;99.90;;;;;;5046655;28;20077;-76
2022/01/05 08:23:17;;;;;;;12.25;1.70;;;5.40;99.90;;;;;;5052420;28;20036;-76
2022/01/05 08:25:43;;;;;;;13.27;1.92;;;4.50;99.90;;;;;;5010028;28;20108;-77
2022/01/05 08:28:11;;;;;;;10.05;1.63;;;4.50;99.90;;;;;;5023411;28;20078;-76
2022/01/05 08:30:37;;;;;;;10.82;1.63;;;4.60;99.90;;;;;;5055628;28;20040;-76
2022/01/05 08:33:03;;;;;;;10.20;1.67;;;4.70;99.90;;;;;;5007492;28;20392;-74
2022/01/05 08:35:30;;;;;;;11.98;1.80;;;4.70;99.90;;;;;;5042013;28;20042;-76
2022/01/05 08:37:57;;;;;;;8.13;1.80;;;4.70;99.90;;;;;;5058688;28;20090;-76
2022/01/05 08:40:24;;;;;;;12.65;1.77;;;4.80;99.90;;;;;;5058885;28;20037;-77
2022/01/05 08:42:51;;;;;;;14.85;2.30;;;4.90;99.90;;;;;;5035344;28;20051;-77
2022/01/05 08:45:18;;;;;;;12.05;1.90;;;5.30;99.90;;;;;;5054122;28;20048;-77
2022/01/05 08:47:47;;;;;;;12.73;2.50;;;5.00;99.90;;;;;;5048018;28;20036;-77
2022/01/05 08:50:18;;;;;;;10.23;1.58;;;5.10;99.90;;;;;;5043915;28;20056;-77
2022/01/05 08:52:45;;;;;;;11.55;1.90;;;5.10;99.90;;;;;;5034849;28;20068;-77
2022/01/05 08:55:12;;;;;;;11.57;1.88;;;5.20;99.90;;;;;;5029350;28;20514;-76
2022/01/05 08:57:40;;;;;;;22.55;2.60;;;5.20;99.90;;;;;;5060152;28;20038;-76
2022/01/05 09:00:06;;;;;;;11.27;1.70;;;5.20;99.90;;;;;;5043559;28;20087;-76
2022/01/05 09:02:32;;;;;;;;;;;5.20;99.90;;;;;;5032492;28;20132;-76
2022/01/05 09:04:58;;;;;;;20.50;2.00;;;5.30;99.90;;;;;;5064688;28;20416;-77
2022/01/05 09:07:24;;;;;;;12.65;1.80;;;5.70;99.90;;;;;;5027016;28;20033;-77
2022/01/05 09:09:50;;;;;;;10.15;2.00;;;5.40;99.90;;;;;;5048825;28;20040;-77
2022/01/05 09:12:16;;;;;;;17.38;2.00;;;5.60;99.90;;;;;;5060664;28;20040;-77
2022/01/05 09:14:42;;;;;;;11.05;2.00;;;5.70;99.90;;;;;;5020634;28;20035;-79
2022/01/05 09:17:08;;;;;;;8.93;1.60;;;6.10;99.90;;;;;;5039269;28;20043;-78
2022/01/05 09:19:34;;;;;;;;;;;5.50;99.90;;;;;;5041148;28;20031;-76
2022/01/05 09:22:00;;;;;;;9.18;1.63;;;6.20;99.90;;;;;;5042215;28;19920;-78
2022/01/05 09:24:26;;;;;;;11.15;1.77;;;5.40;99.90;;;;;;5043039;28;20471;-78
2022/01/05 09:26:56;;;;;;;10.38;1.60;;;5.80;99.90;;;;;;5059228;28;20048;-78
2022/01/05 09:29:23;;;;;;;7.70;1.40;;;5.40;99.90;;;;;;5040908;28;20040;-78
2022/01/05 09:31:49;;;;;;;8.77;1.45;;;5.80;99.90;;;;;;5060624;28;20051;-79
2022/01/05 09:34:16;;;;;;;8.80;1.73;;;6.40;99.90;;;;;;5023791;28;20124;-78
2022/01/05 09:36:47;;;;;;;8.80;1.38;;;7.00;99.90;;;;;;5038071;28;20878;-79
2022/01/05 09:41:57;;;;;;;14.40;1.80;;;7.80;99.90;;;;;;5055998;28;20048;-81
2022/01/05 09:44:31;;;;;;;11.43;1.73;;;7.90;99.90;;;;;;5060795;28;20094;-81
2022/01/05 09:46:59;;;;;;;8.75;1.30;;;7.40;99.90;;;;;;5058690;28;20047;-81
2022/01/05 09:49:37;;;;;;;13.57;1.90;;;7.50;99.90;;;;;;5043064;28;20127;-81
2022/01/05 09:52:06;;;;;;;13.40;1.90;;;7.60;99.90;;;;;;5068912;28;20122;-80
2022/01/05 09:54:42;;;;;;;14.52;2.00;;;7.80;99.90;;;;;;5042393;28;20400;-81
2022/01/05 09:57:11;;;;;;;8.05;1.65;;;8.20;99.90;;;;;;5061880;28;20039;-81
2022/01/05 09:59:37;;;;;;;13.63;1.92;;;8.30;99.90;;;;;;5052424;28;20043;-80
2022/01/05 10:02:05;;;;;;;11.60;1.73;;;8.60;99.90;;;;;;5027317;28;20094;-81
2022/01/05 10:04:31;;;;;;;11.70;2.00;;;8.70;99.90;;;;;;5061251;28;20076;-81
2022/01/05 10:06:57;;;;;;;9.38;1.90;;;9.20;99.90;;;;;;5041751;28;20127;-80
2022/01/05 10:09:23;;;;;;;8.02;1.48;;;9.20;99.90;;;;;;5059568;28;20085;-81
2022/01/05 10:11:49;;;;;;;13.65;1.83;;;9.70;99.90;;;;;;5048296;28;20040;-80
2022/01/05 10:14:16;;;;;;;14.63;2.50;;;9.90;99.90;;;;;;5045395;28;20054;-81
2022/01/05 10:16:59;;;;;;;8.68;1.75;;;9.70;99.90;;;;;;5025332;28;20044;-80
2022/01/05 10:19:25;;;;;;;9.55;1.65;;;9.50;99.90;;;;;;5053470;28;20419;-81
2022/01/05 10:21:51;;;;;;;8.32;2.00;;;9.60;99.90;;;;;;5058164;28;20082;-80
2022/01/05 10:24:17;;;;;;;9.93;1.90;;;10.00;99.90;;;;;;5038398;28;20059;-80
2022/01/05 10:26:43;;;;;;;12.90;2.03;;;10.20;99.90;;;;;;5035974;28;20040;-80
2022/01/05 10:29:18;;;;;;;10.50;1.83;;;10.40;99.90;;;;;;5058368;28;20036;-80
2022/01/05 10:31:51;;;;;;;12.88;1.70;;;10.70;99.90;;;;;;5059040;28;20091;-79
2022/01/05 10:34:20;;;;;;;10.68;1.67;;;10.80;99.90;;;;;;5052970;28;20098;-80
2022/01/05 10:36:53;;;;;;;12.05;2.13;;;10.90;99.90;;;;;;5050964;28;20036;-80
2022/01/05 10:39:27;;;;;;;11.43;2.00;;;11.00;99.90;;;;;;5057864;28;20085;-80
2022/01/05 10:41:53;;;;;;;8.98;1.90;;;10.90;99.90;;;;;;5059370;28;20036;-81
2022/01/05 10:44:22;;;;;;;13.38;2.38;;;10.90;99.90;;;;;;5057009;28;20093;-80
2022/01/05 10:46:54;;;;;;;14.05;2.42;;;10.90;99.90;;;;;;5045005;28;20068;-80
2022/01/05 10:49:27;;;;;;;13.05;2.03;;;10.90;99.90;;;;;;5043537;28;20037;-80
2022/01/05 10:51:54;;;;;;;14.15;2.60;;;10.80;99.90;;;;;;5061439;28;20044;-80
2022/01/05 10:54:23;;;;;;;13.75;2.78;;;10.00;99.90;;;;;;5041729;28;20069;-80
2022/01/05 10:56:50;;;;;;;14.07;2.65;;;9.50;99.90;;;;;;5051042;28;20043;-80
2022/01/05 10:59:34;;;;;;;18.88;2.63;;;9.40;99.90;;;;;;5037559;28;20036;-80
2022/01/05 11:01:59;;;;;;;15.68;2.60;;;9.50;99.90;;;;;;5067789;28;20039;-80
2022/01/05 11:04:25;;;;;;;20.17;2.70;;;9.80;99.90;;;;;;5064484;28;20047;-80
2022/01/05 11:07:03;;;;;;;16.80;2.47;;;9.60;99.90;;;;;;5062241;28;20397;-80
2022/01/05 11:09:31;;;;;;;13.68;2.30;;;9.50;99.90;;;;;;5055739;28;20040;-80
2022/01/05 11:11:58;;;;;;;15.73;2.67;;;9.30;99.90;;;;;;5068901;28;20046;-80
2022/01/05 11:14:37;;;;;;;17.80;2.80;;;9.30;99.90;;;;;;5053454;28;20036;-80
2022/01/05 11:17:04;;;;;;;18.70;2.97;;;9.40;99.90;;;;;;5047702;28;20493;-80
2022/01/05 11:19:32;;;;;;;14.00;3.15;;;9.50;99.90;;;;;;5041710;28;20041;-80
2022/01/05 11:22:05;;;;;;;15.82;2.53;;;10.10;99.90;;;;;;5058374;28;20040;-79
2022/01/05 11:24:53;;;;;;;16.60;2.60;;;10.70;99.90;;;;;;5055529;28;20040;-80
2022/01/05 11:27:25;;;;;;;14.43;2.60;;;11.00;99.90;;;;;;5063565;28;20036;-81
2022/01/05 11:29:51;;;;;;;15.63;2.63;;;10.70;99.90;;;;;;5067624;28;20051;-80
2022/01/05 11:32:20;;;;;;;;;;;10.40;99.90;;;;;;5052600;28;20194;-82
2022/01/05 11:34:47;;;;;;;19.25;3.05;;;10.20;99.90;;;;;;5056399;28;19915;-82
2022/01/05 11:37:12;;;;;;;;;;;10.50;99.90;;;;;;5069141;28;20059;-80
2022/01/05 11:39:44;;;;;;;25.17;3.00;;;11.10;99.90;;;;;;5053654;28;20339;-78
2022/01/05 11:42:14;;;;;;;15.38;2.53;;;11.30;99.90;;;;;;5066151;28;20096;-78
2022/01/05 11:44:54;;;;;;;18.40;2.60;;;11.40;99.90;;;;;;5057214;28;20118;-79
2022/01/05 11:47:26;;;;;;;12.90;2.33;;;11.50;99.90;;;;;;5063064;28;20083;-79
2022/01/05 11:49:55;;;;;;;14.18;2.70;;;11.80;99.90;;;;;;5045692;28;20568;-79
2022/01/05 11:56:18;;;;;;;13.77;2.47;;;11.00;99.90;;;;;;5076941;28;20138;-79
2022/01/05 11:58:55;;;;;;;13.02;2.63;;;10.60;99.90;;;;;;5055233;28;20036;-77
2022/01/05 12:01:22;;;;;;;13.45;2.50;;;10.60;99.90;;;;;;5062444;28;20039;-78
2022/01/05 12:03:56;;;;;;;13.57;2.28;;;10.90;99.90;;;;;;5047863;28;20178;-79
2022/01/05 12:06:33;;;;;;;12.73;2.17;;;11.20;99.90;;;;;;5063915;28;20493;-79
2022/01/05 12:09:04;;;;;;;;;;;11.60;99.90;;;;;;5065409;28;20040;-79
2022/01/05 12:11:38;;;;;;;15.20;2.33;;;11.60;99.90;;;;;;5064576;28;19923;-80
2022/01/05 12:14:28;;;;;;;14.18;2.45;;;11.50;99.90;;;;;;5042272;28;20121;-81
2022/01/05 12:17:02;;;;;;;11.80;2.17;;;11.80;99.90;;;;;;5051019;28;20040;-81
2022/01/05 12:19:46;;;;;;;14.98;2.15;;;11.70;99.90;;;;;;5065611;28;20519;-81
2022/01/05 12:22:15;;;;;;;12.90;1.80;;;11.40;99.90;;;;;;5052869;28;20421;-79
2022/01/05 12:24:53;;;;;;;11.85;1.95;;;10.70;99.90;;;;;;5049483;28;20102;-79
2022/01/05 12:27:19;;;;;;;11.38;2.08;;;10.00;99.90;;;;;;5044884;28;20393;-80
2022/01/05 12:29:48;;;;;;;14.45;2.10;;;10.00;99.90;;;;;;5055214;28;20071;-78
2022/01/05 12:32:41;;;;;;;8.85;1.40;;;9.50;99.90;;;;;;5024764;28;20545;-78
2022/01/05 12:35:14;;;;;;;16.02;2.30;;;9.40;99.90;;;;;;5048370;28;20492;-78
2022/01/05 12:37:43;;;;;;;12.45;1.92;;;9.10;99.90;;;;;;5060480;28;20037;-78
2022/01/05 12:40:42;;;;;;;12.07;2.17;;;9.40;99.90;;;;;;5063012;28;20043;-77
2022/01/05 12:43:13;;;;;;;14.40;2.40;;;10.00;99.90;;;;;;5045043;28;20044;-78
2022/01/05 12:45:45;;;;;;;13.65;2.40;;;10.40;99.90;;;;;;5063170;28;20106;-78
2022/01/05 12:48:36;;;;;;;11.38;2.20;;;9.90;99.90;;;;;;5060393;28;20036;-78
2022/01/05 12:51:17;;;;;;;14.63;2.80;;;9.30;99.90;;;;;;5054077;28;20052;-78
2022/01/05 12:54:06;;;;;;;16.77;2.67;;;9.00;99.90;;;;;;5038333;28;20044;-78
2022/01/05 12:56:46;;;;;;;12.75;2.53;;;8.70;99.90;;;;;;5053947;28;20502;-78
2022/01/05 12:59:22;;;;;;;11.02;2.05;;;8.50;99.90;;;;;;5059226;28;20032;-78